sensor_id;sensor_type;location;lat;lon;timestamp;pressure;altitude;pressure_sealevel;temperature;humidity
20105;BME280;10212;42.714;23.310;2023-05-12T03:54:04;95480.03;;;5.65;100.00
20105;BME280;10212;42.714;23.310;2023-05-12T04:04:04;95488.09;;;5.87;100.00
20105;BME280;10212;42.714;23.310;2023-05-12T04:14:05;95488.09;;;5.87;100.00
20105;BME280;10212;42.714;23.310;2023-05-12T04:24:05;95489.56;;;5.98;100.00
20105;BME280;10212;42.714;23.310;2023-05-12T04:34:06;95490.66;;;6.29;100.00
20105;BME280;10212;42.714;23.310;2023-05-12T04:44:06;95494.22;;;6.27;100.00
20105;BME280;10212;42.714;23.310;2023-05-12T04:54:10;95496.97;;;6.18;100.00
20105;BME280;10212;42.714;23.310;2023-05-12T05:04:11;95492.78;;;6.17;100.00
20105;BME280;10212;42.714;23.310;2023-05-12T05:14:11;95495.81;;;6.45;100.00
20105;BME280;10212;42.714;23.310;2023-05-12T05:24:12;95505.63;;;6.58;100.00
20105;BME280;10212;42.714;23.310;2023-05-12T05:34:14;95509.38;;;6.56;100.00
20105;BME280;10212;42.714;23.310;2023-05-12T05:44:16;95511.97;;;6.56;100.00
20105;BME280;10212;42.714;23.310;2023-05-12T05:54:16;95520.91;;;6.85;100.00
20105;BME280;10212;42.714;23.310;2023-05-12T06:04:17;95515.63;;;7.10;100.00
20105;BME280;10212;42.714;23.310;2023-05-12T06:14:17;95529.88;;;7.14;100.00
20105;BME280;10212;42.714;23.310;2023-05-12T06:24:46;95532.88;;;7.26;100.00
20105;BME280;10212;42.714;23.310;2023-05-12T06:34:47;95526.22;;;7.32;99.64
20105;BME280;10212;42.714;23.310;2023-05-12T06:44:48;95547.19;;;7.45;99.81
20105;BME280;10212;42.714;23.310;2023-05-12T06:54:49;95545.38;;;7.78;96.69
20105;BME280;10212;42.714;23.310;2023-05-12T07:04:50;95547.03;;;7.94;94.08
20105;BME280;10212;42.714;23.310;2023-05-12T07:14:50;95539.34;;;8.01;94.85
20105;BME280;10212;42.714;23.310;2023-05-12T07:24:51;95543.91;;;7.99;93.96
20105;BME280;10212;42.714;23.310;2023-05-12T07:34:52;95540.56;;;8.13;92.79
20105;BME280;10212;42.714;23.310;2023-05-12T07:44:52;95551.41;;;7.93;97.17
20105;BME280;10212;42.714;23.310;2023-05-12T07:54:55;95548.91;;;8.24;97.62
20105;BME280;10212;42.714;23.310;2023-05-12T08:04:56;95538.38;;;9.01;94.88
20105;BME280;10212;42.714;23.310;2023-05-12T08:14:57;95550.38;;;9.76;88.01
20105;BME280;10212;42.714;23.310;2023-05-12T08:25:00;95534.38;;;10.30;85.06
20105;BME280;10212;42.714;23.310;2023-05-12T08:35:01;95540.03;;;10.40;81.36
20105;BME280;10212;42.714;23.310;2023-05-12T08:45:02;95547.97;;;10.82;79.20
20105;BME280;10212;42.714;23.310;2023-05-12T08:55:04;95535.09;;;11.23;75.22
20105;BME280;10212;42.714;23.310;2023-05-12T09:05:04;95541.69;;;11.12;73.44
20105;BME280;10212;42.714;23.310;2023-05-12T09:15:07;95528.44;;;11.14;74.01
20105;BME280;10212;42.714;23.310;2023-05-12T09:25:15;95525.16;;;10.98;71.52
20105;BME280;10212;42.714;23.310;2023-05-12T09:35:17;95508.53;;;11.13;71.39
20105;BME280;10212;42.714;23.310;2023-05-12T09:45:18;95515.69;;;11.53;71.73
20105;BME280;10212;42.714;23.310;2023-05-12T09:55:19;95509.66;;;11.52;68.84
20105;BME280;10212;42.714;23.310;2023-05-12T10:05:20;95508.50;;;12.02;67.83
20105;BME280;10212;42.714;23.310;2023-05-12T10:15:21;95494.16;;;12.59;66.79
20105;BME280;10212;42.714;23.310;2023-05-12T10:25:24;95493.28;;;13.64;65.32
20105;BME280;10212;42.714;23.310;2023-05-12T10:35:32;95484.50;;;13.84;62.12
20105;BME280;10212;42.714;23.310;2023-05-12T10:45:36;95470.63;;;14.46;61.26
20105;BME280;10212;42.714;23.310;2023-05-12T10:55:42;95472.50;;;14.58;59.61
20105;BME280;10212;42.714;23.310;2023-05-12T11:05:44;95475.03;;;15.21;55.23
20105;BME280;10212;42.714;23.310;2023-05-12T11:15:46;95480.50;;;14.89;55.11
20105;BME280;10212;42.714;23.310;2023-05-12T11:25:46;95475.47;;;14.87;56.27
20105;BME280;10212;42.714;23.310;2023-05-12T11:35:48;95477.53;;;14.41;53.29
20105;BME280;10212;42.714;23.310;2023-05-12T11:45:49;95485.22;;;14.17;57.41
20105;BME280;10212;42.714;23.310;2023-05-12T11:55:50;95472.00;;;14.05;55.45
20105;BME280;10212;42.714;23.310;2023-05-12T12:06:02;95476.44;;;14.30;56.44
20105;BME280;10212;42.714;23.310;2023-05-12T12:16:05;95472.81;;;14.05;56.14
20105;BME280;10212;42.714;23.310;2023-05-12T12:26:06;95476.63;;;14.54;57.55
20105;BME280;10212;42.714;23.310;2023-05-12T12:36:07;95481.56;;;14.81;56.01
20105;BME280;10212;42.714;23.310;2023-05-12T12:46:07;95476.72;;;14.40;56.56
20105;BME280;10212;42.714;23.310;2023-05-12T12:56:08;95464.59;;;14.02;58.13
20105;BME280;10212;42.714;23.310;2023-05-12T13:06:08;95469.28;;;14.18;57.06
20105;BME280;10212;42.714;23.310;2023-05-12T13:16:09;95451.69;;;14.44;55.54
20105;BME280;10212;42.714;23.310;2023-05-12T13:26:09;95438.84;;;14.36;54.30
20105;BME280;10212;42.714;23.310;2023-05-12T13:36:10;95435.75;;;14.02;54.54
20105;BME280;10212;42.714;23.310;2023-05-12T13:46:10;95429.50;;;14.21;53.16
20105;BME280;10212;42.714;23.310;2023-05-12T13:56:10;95443.03;;;13.99;54.64
20105;BME280;10212;42.714;23.310;2023-05-12T14:06:11;95433.44;;;14.50;53.82
20105;BME280;10212;42.714;23.310;2023-05-12T14:16:11;95441.19;;;15.13;53.01
20105;BME280;10212;42.714;23.310;2023-05-12T14:26:13;95431.69;;;15.00;52.64
20105;BME280;10212;42.714;23.310;2023-05-12T14:36:13;95434.63;;;14.54;54.04
20105;BME280;10212;42.714;23.310;2023-05-12T14:46:14;95441.63;;;14.60;55.03
20105;BME280;10212;42.714;23.310;2023-05-12T14:56:15;95439.88;;;14.54;53.53
20105;BME280;10212;42.714;23.310;2023-05-12T15:06:15;95421.50;;;14.54;55.32
20105;BME280;10212;42.714;23.310;2023-05-12T15:16:16;95414.22;;;14.37;55.66
20105;BME280;10212;42.714;23.310;2023-05-12T15:26:19;95407.06;;;14.07;56.33
20105;BME280;10212;42.714;23.310;2023-05-12T15:36:23;95398.81;;;14.03;56.08
20105;BME280;10212;42.714;23.310;2023-05-12T15:46:30;95400.06;;;14.01;55.46
20105;BME280;10212;42.714;23.310;2023-05-12T15:56:33;95394.47;;;13.97;56.18
20105;BME280;10212;42.714;23.310;2023-05-12T16:06:34;95414.28;;;13.35;57.20
20105;BME280;10212;42.714;23.310;2023-05-12T16:16:34;95412.38;;;13.17;57.99
20105;BME280;10212;42.714;23.310;2023-05-12T16:26:36;95404.09;;;12.87;58.88
20105;BME280;10212;42.714;23.310;2023-05-12T16:36:37;95428.84;;;12.85;58.00
20105;BME280;10212;42.714;23.310;2023-05-12T16:46:37;95431.19;;;12.61;59.25
20105;BME280;10212;42.714;23.310;2023-05-12T16:56:38;95437.69;;;12.38;59.62
20105;BME280;10212;42.714;23.310;2023-05-12T17:06:38;95435.28;;;12.29;61.35
20105;BME280;10212;42.714;23.310;2023-05-12T17:16:39;95450.81;;;11.97;62.50
20105;BME280;10212;42.714;23.310;2023-05-12T17:26:39;95456.22;;;11.62;63.38
20105;BME280;10212;42.714;23.310;2023-05-12T17:36:40;95477.91;;;11.55;63.84
20105;BME280;10212;42.714;23.310;2023-05-12T17:46:40;95480.91;;;11.45;64.43
20105;BME280;10212;42.714;23.310;2023-05-12T17:56:41;95482.31;;;11.48;63.36
20105;BME280;10212;42.714;23.310;2023-05-12T18:06:42;95494.19;;;11.57;62.87
20105;BME280;10212;42.714;23.310;2023-05-12T18:16:43;95509.84;;;11.44;63.13
20105;BME280;10212;42.714;23.310;2023-05-12T18:26:43;95521.06;;;11.38;63.56
20105;BME280;10212;42.714;23.310;2023-05-12T18:36:43;95522.03;;;11.23;65.44
20105;BME280;10212;42.714;23.310;2023-05-12T18:46:44;95538.88;;;11.20;65.10
20105;BME280;10212;42.714;23.310;2023-05-12T18:56:45;95543.47;;;11.12;64.84
20105;BME280;10212;42.714;23.310;2023-05-12T19:06:47;95553.66;;;11.00;65.96
20105;BME280;10212;42.714;23.310;2023-05-12T19:16:47;95566.06;;;10.91;66.84
20105;BME280;10212;42.714;23.310;2023-05-12T19:26:48;95562.44;;;10.92;67.48
20105;BME280;10212;42.714;23.310;2023-05-12T19:36:50;95571.81;;;10.79;68.25
20105;BME280;10212;42.714;23.310;2023-05-12T19:46:51;95575.13;;;10.59;68.99
20105;BME280;10212;42.714;23.310;2023-05-12T19:56:51;95570.22;;;10.49;70.32
20105;BME280;10212;42.714;23.310;2023-05-12T20:06:52;95562.53;;;10.41;70.90
20105;BME280;10212;42.714;23.310;2023-05-12T20:16:56;95587.34;;;10.37;70.85
20105;BME280;10212;42.714;23.310;2023-05-12T20:26:58;95573.59;;;10.21;71.96
20105;BME280;10212;42.714;23.310;2023-05-12T20:36:58;95572.78;;;10.21;72.00
20105;BME280;10212;42.714;23.310;2023-05-12T20:46:58;95562.00;;;10.24;71.40
20105;BME280;10212;42.714;23.310;2023-05-12T20:56:59;95569.84;;;10.02;72.79
20105;BME280;10212;42.714;23.310;2023-05-12T21:07:00;95591.41;;;9.96;73.34
20105;BME280;10212;42.714;23.310;2023-05-12T21:17:00;95602.53;;;9.83;74.19
20105;BME280;10212;42.714;23.310;2023-05-12T21:27:01;95623.00;;;9.86;73.89
20105;BME280;10212;42.714;23.310;2023-05-12T21:37:01;95631.25;;;9.89;74.00
20105;BME280;10212;42.714;23.310;2023-05-12T21:47:02;95646.13;;;9.96;72.87
20105;BME280;10212;42.714;23.310;2023-05-12T21:57:03;95659.16;;;9.96;72.28
20105;BME280;10212;42.714;23.310;2023-05-12T22:07:04;95668.31;;;9.55;77.42
20105;BME280;10212;42.714;23.310;2023-05-12T22:17:05;95653.28;;;8.89;84.12
20105;BME280;10212;42.714;23.310;2023-05-12T22:27:05;95653.69;;;8.78;85.68
20105;BME280;10212;42.714;23.310;2023-05-12T22:37:06;95652.09;;;8.77;84.25
20105;BME280;10212;42.714;23.310;2023-05-12T22:47:06;95621.03;;;8.60;83.72
20105;BME280;10212;42.714;23.310;2023-05-12T22:57:07;95633.13;;;8.06;84.72
20105;BME280;10212;42.714;23.310;2023-05-12T23:07:07;95629.03;;;7.88;89.38
20105;BME280;10212;42.714;23.310;2023-05-12T23:17:09;95621.38;;;7.63;93.61
20105;BME280;10212;42.714;23.310;2023-05-12T23:27:09;95603.75;;;7.58;91.27
20105;BME280;10212;42.714;23.310;2023-05-12T23:37:10;95584.84;;;7.41;90.82
20105;BME280;10212;42.714;23.310;2023-05-12T23:47:10;95586.94;;;7.46;91.56
20105;BME280;10212;42.714;23.310;2023-05-12T23:57:11;95581.00;;;7.29;92.94
